This is the latest recevied weather packets stored in our database for station/object KC1HBM. If no packets are shown the sender has not sent any weather packets the latest 10 day(s).
| Time | Temp. | Humidity | Pressure | Rain* | Wind** | Luminosity | Snow |
|---|---|---|---|---|---|---|---|
| 1777967150 | 10° C | 85% | 1006.8 hPa | 0 mm | - | 0 W/m² | - |
| 1777966848 | 9.44° C | 85% | 1006.7 hPa | 0 mm | - | 0 W/m² | - |
| 1777966545 | 9.44° C | 85% | 1006.7 hPa | 0 mm | - | 0 W/m² | - |
| 1777966244 | 9.44° C | 85% | 1006.8 hPa | 0 mm | - | 0 W/m² | - |
| 1777965939 | 10° C | 84% | 1006.8 hPa | 0 mm | - | 0 W/m² | - |
| 1777965635 | 10° C | 82% | 1006.6 hPa | 0 mm | - | 0 W/m² | - |
| 1777965330 | 10° C | 81% | 1006.6 hPa | 0 mm | - | 0 W/m² | - |
| 1777965029 | 10.56° C | 80% | 1006.5 hPa | 0 mm | - | 0 W/m² | - |
| 1777964726 | 10.56° C | 80% | 1006.6 hPa | 0 mm | - | 0 W/m² | - |
| 1777964422 | 10.56° C | 80% | 1006.7 hPa | 0 mm | - | 0 W/m² | - |
| 1777964118 | 10.56° C | 80% | 1006.7 hPa | 0 mm | - | 0 W/m² | - |
| 1777963815 | 10.56° C | 79% | 1006.5 hPa | 0 mm | - | 0 W/m² | - |
| 1777963512 | 11.11° C | 79% | 1006.6 hPa | 0 mm | - | 0 W/m² | - |
| 1777963210 | 11.11° C | 79% | 1006.5 hPa | 0 mm | - | 0 W/m² | - |
| 1777962907 | 11.11° C | 79% | 1006.3 hPa | 0 mm | - | 0 W/m² | - |
| 1777962603 | 11.11° C | 79% | 1006.7 hPa | 0 mm | - | 0 W/m² | - |
| 1777962300 | 10.56° C | 80% | 1006.5 hPa | 0 mm | - | 0 W/m² | - |
| 1777961996 | 10.56° C | 79% | 1006.4 hPa | 0 mm | - | 0 W/m² | - |
| 1777961694 | 10.56° C | 79% | 1006.4 hPa | 0 mm | - | 0 W/m² | - |
| 1777961392 | 11.11° C | 78% | 1006.5 hPa | 0 mm | - | 0 W/m² | - |
| 1777961089 | 11.67° C | 75% | 1006.4 hPa | 0 mm | - | 0 W/m² | - |
| 1777960785 | 12.78° C | 71% | 1006.7 hPa | 0 mm | - | 0 W/m² | - |
| 1777960481 | 12.78° C | 68% | 1006.5 hPa | 0 mm | - | 0 W/m² | - |
| 1777960178 | 13.33° C | 67% | 1006.3 hPa | 0 mm | - | 0 W/m² | - |
| 1777959876 | 13.89° C | 65% | 1006.5 hPa | 0 mm | - | 0 W/m² | - |
* Rain latest hour (hover to see other rain measurements)
** Current wind speed in m/s (hover to see current wind gust speed)